Time;durP1;ratioP1;P1;durP2;ratioP2;P2;SDS_P1;SDS_P2;PMS_P1;PMS_P2;Temp;Humidity;BMP_temperature;BMP_pressure;BME280_temperature;BME280_humidity;BME280_pressure;Samples;Min_cycle;Max_cycle;Signal;HPM_P1;HPM_P2
2023/09/10 00:01:02;;;;;;;;;;;28.20;60.50;;;;;;5075563;28;20333;-56
2023/09/10 00:03:28;;;;;;;;;;;28.20;60.90;;;;;;5075327;28;20442;-56
2023/09/10 00:05:53;;;;;;;;;;;28.10;60.70;;;;;;5075342;28;19912;-56
2023/09/10 00:08:19;;;;;;;;;;;28.10;60.80;;;;;;5073850;28;19909;-56
2023/09/10 00:10:45;;;;;;;;;;;28.10;60.80;;;;;;5075375;28;19951;-56
2023/09/10 00:13:11;;;;;;;;;;;28.10;60.90;;;;;;5075014;28;19944;-56
2023/09/10 00:15:36;;;;;;;;;;;28.10;60.90;;;;;;5075163;28;19920;-56
2023/09/10 00:18:02;;;;;;;;;;;28.10;61.10;;;;;;5075296;28;19909;-57
2023/09/10 00:20:28;;;;;;;;;;;28.10;60.90;;;;;;5075311;28;20000;-56
2023/09/10 00:22:53;;;;;;;;;;;28.10;61.10;;;;;;5074928;28;20372;-56
2023/09/10 00:25:18;;;;;;;;;;;28.10;60.90;;;;;;5074936;28;20322;-56
2023/09/10 00:27:44;;;;;;;;;;;28.10;61.20;;;;;;5074934;28;20332;-56
2023/09/10 00:30:10;;;;;;;;;;;28.10;60.70;;;;;;5074926;28;20284;-57
2023/09/10 00:32:35;;;;;;;;;;;28.10;61.20;;;;;;5074758;28;19994;-56
2023/09/10 00:35:00;;;;;;;;;;;28.10;60.80;;;;;;5074858;28;20352;-56
2023/09/10 00:37:26;;;;;;;;;;;28.10;61.20;;;;;;5074716;28;19916;-56
2023/09/10 00:39:51;;;;;;;;;;;28.10;61.10;;;;;;5074704;28;20278;-56
2023/09/10 00:42:17;;;;;;;;;;;28.10;61.30;;;;;;5074516;28;19916;-56
2023/09/10 00:44:43;;;;;;;;;;;28.10;61.20;;;;;;5074534;28;19970;-56
2023/09/10 00:47:08;;;;;;;;;;;28.10;61.30;;;;;;5073507;28;19909;-56
2023/09/10 00:49:34;;;;;;;;;;;28.00;61.20;;;;;;5074571;28;19915;-56
2023/09/10 00:51:59;;;;;;;;;;;28.00;61.10;;;;;;5074200;28;20059;-56
2023/09/10 00:54:25;;;;;;;;;;;28.00;61.10;;;;;;5074283;28;19908;-56
2023/09/10 00:56:50;;;;;;;;;;;28.10;61.00;;;;;;5073094;28;20376;-58
2023/09/10 00:59:16;;;;;;;;;;;28.10;61.40;;;;;;5073296;28;19909;-56
2023/09/10 01:07:48;;;;;;;;;;;28.10;61.40;;;;;;5074161;28;19920;-56
2023/09/10 01:10:13;;;;;;;;;;;28.00;61.30;;;;;;5072924;28;20280;-56
2023/09/10 01:12:59;;;;;;;;;;;28.00;61.30;;;;;;5074057;28;20315;-56
2023/09/10 01:15:33;;;;;;;;;;;28.00;61.30;;;;;;5062962;28;19908;-56
2023/09/10 01:18:18;;;;;;;;;;;28.00;61.30;;;;;;5073922;28;19912;-56
2023/09/10 01:20:58;;;;;;;;;;;28.00;61.30;;;;;;5072871;28;19909;-56
2023/09/10 01:23:44;;;;;;;;;;;28.00;61.30;;;;;;5072421;28;19919;-56
2023/09/10 01:26:09;;;;;;;;;;;28.00;61.40;;;;;;5042296;28;19948;-56
2023/09/10 01:28:35;;;;;;;;;;;28.00;61.40;;;;;;5073628;28;20364;-56
2023/09/10 01:31:00;;;;;;;;;;;28.00;61.30;;;;;;5073525;28;20323;-56
2023/09/10 01:33:35;;;;;;;;;;;28.00;61.30;;;;;;5073571;28;19947;-56
2023/09/10 01:36:11;;;;;;;;;;;28.00;61.30;;;;;;5073542;28;19915;-56
2023/09/10 01:38:46;;;;;;;;;;;28.00;61.50;;;;;;5073569;28;19948;-56
2023/09/10 01:41:17;;;;;;;;;;;28.00;61.30;;;;;;5073429;28;19908;-57
2023/09/10 01:43:43;;;;;;;;;;;27.90;61.50;;;;;;5073484;28;19913;-56
2023/09/10 01:46:08;;;;;;;;;;;27.90;61.50;;;;;;5072092;28;20052;-56
2023/09/10 01:48:34;;;;;;;;;;;27.90;61.50;;;;;;5073394;28;19988;-57
2023/09/10 01:50:59;;;;;;;;;;;27.90;61.50;;;;;;5071981;28;19921;-56
2023/09/10 01:53:25;;;;;;;;;;;27.90;61.70;;;;;;5073312;28;19909;-56
2023/09/10 01:55:50;;;;;;;;;;;27.90;61.70;;;;;;5073337;28;19908;-56
2023/09/10 01:58:16;;;;;;;;;;;27.90;61.80;;;;;;5073224;28;20280;-56
2023/09/10 02:00:41;;;;;;;;;;;27.90;61.80;;;;;;5073277;28;19924;-56
2023/09/10 02:03:07;;;;;;;;;;;27.90;61.70;;;;;;5073314;28;19908;-56
2023/09/10 02:05:32;;;;;;;;;;;27.90;61.90;;;;;;5073279;28;19976;-56
2023/09/10 02:07:58;;;;;;;;;;;27.80;61.80;;;;;;5073101;28;20276;-56
2023/09/10 02:10:23;;;;;;;;;;;27.80;61.70;;;;;;5073117;28;19915;-55
2023/09/10 02:12:49;;;;;;;;;;;27.90;61.90;;;;;;5073307;28;19909;-56
2023/09/10 02:15:16;;;;;;;;;;;27.90;61.90;;;;;;5073114;28;19912;-55
2023/09/10 02:17:41;;;;;;;;;;;27.90;61.90;;;;;;5073202;28;20003;-56
2023/09/10 02:20:10;;;;;;;;;;;27.90;61.90;;;;;;5072995;28;19944;-56
2023/09/10 02:22:38;;;;;;;;;;;27.90;62.00;;;;;;5073150;28;19916;-56
2023/09/10 02:25:04;;;;;;;;;;;27.90;61.90;;;;;;5072834;28;19962;-56
2023/09/10 02:27:31;;;;;;;;;;;27.80;61.90;;;;;;5072821;28;20355;-56
2023/09/10 02:29:56;;;;;;;;;;;27.80;62.00;;;;;;5071767;28;19908;-56
2023/09/10 02:32:22;;;;;;;;;;;27.90;62.00;;;;;;5072409;28;20016;-56
2023/09/10 02:34:48;;;;;;;;;;;27.80;62.00;;;;;;5072875;28;19927;-55
2023/09/10 02:37:13;;;;;;;;;;;27.80;61.70;;;;;;5072959;28;19909;-56
2023/09/10 02:39:39;;;;;;;;;;;27.90;61.90;;;;;;5072868;28;19909;-55
2023/09/10 02:42:04;;;;;;;;;;;27.80;62.00;;;;;;5072823;28;19916;-56
2023/09/10 02:44:30;;;;;;;;;;;27.80;61.90;;;;;;5072698;28;19957;-56
2023/09/10 02:46:55;;;;;;;;;;;27.80;61.90;;;;;;5072593;28;19908;-56
2023/09/10 02:49:21;;;;;;;;;;;27.80;62.10;;;;;;5072531;28;19995;-56
2023/09/10 02:51:48;;;;;;;;;;;27.80;62.10;;;;;;5071298;28;20376;-56
2023/09/10 02:54:14;;;;;;;;;;;27.80;62.10;;;;;;5072630;28;19924;-56
2023/09/10 02:56:40;;;;;;;;;;;27.80;62.20;;;;;;5072545;28;19908;-56
2023/09/10 02:59:05;;;;;;;;;;;27.80;62.10;;;;;;5072592;28;19915;-56
2023/09/10 03:01:31;;;;;;;;;;;27.80;62.20;;;;;;5072476;28;20283;-55
2023/09/10 03:03:56;;;;;;;;;;;27.80;62.30;;;;;;5072478;28;20396;-56
2023/09/10 03:06:22;;;;;;;;;;;27.70;62.10;;;;;;5072332;28;19954;-56
2023/09/10 03:08:47;;;;;;;;;;;27.70;62.10;;;;;;5072515;28;19917;-55
2023/09/10 03:11:13;;;;;;;;;;;27.80;62.30;;;;;;5072559;28;19958;-56
2023/09/10 03:13:38;;;;;;;;;;;27.80;62.30;;;;;;5072441;28;19908;-56
2023/09/10 03:16:04;;;;;;;;;;;27.80;62.30;;;;;;5072369;28;19912;-56
2023/09/10 03:18:29;;;;;;;;;;;27.80;62.30;;;;;;5072302;28;19999;-56
2023/09/10 03:20:55;;;;;;;;;;;27.80;62.30;;;;;;5072316;28;20364;-56
2023/09/10 03:23:20;;;;;;;;;;;27.70;62.30;;;;;;5072238;28;19995;-56
2023/09/10 03:25:46;;;;;;;;;;;27.70;62.30;;;;;;5072340;28;19943;-56
2023/09/10 03:28:11;;;;;;;;;;;27.70;62.30;;;;;;5072255;28;19908;-56
2023/09/10 03:30:37;;;;;;;;;;;27.70;62.40;;;;;;5072464;28;20373;-56
2023/09/10 03:33:02;;;;;;;;;;;27.70;62.30;;;;;;5070991;28;19909;-56
2023/09/10 03:35:28;;;;;;;;;;;27.70;62.30;;;;;;5072170;28;19912;-56
2023/09/10 03:37:53;;;;;;;;;;;27.70;62.40;;;;;;5072146;28;19909;-55
2023/09/10 03:40:19;;;;;;;;;;;27.70;62.50;;;;;;5072177;28;19908;-56
2023/09/10 03:42:44;;;;;;;;;;;27.70;62.40;;;;;;5073529;28;19915;-56
2023/09/10 03:45:09;;;;;;;;;;;27.70;62.40;;;;;;5075656;28;20007;-56
2023/09/10 03:47:36;;;;;;;;;;;27.70;62.50;;;;;;5075843;28;19908;-56
2023/09/10 03:50:01;;;;;;;;;;;27.60;62.40;;;;;;5075700;28;19931;-56
2023/09/10 03:52:27;;;;;;;;;;;27.60;62.60;;;;;;5075373;28;19921;-56
2023/09/10 03:54:52;;;;;;;;;;;27.60;62.40;;;;;;5075508;28;19958;-56
2023/09/10 03:57:18;;;;;;;;;;;27.70;62.60;;;;;;5075753;28;19920;-56
2023/09/10 03:59:43;;;;;;;;;;;27.60;62.60;;;;;;5075465;28;19909;-56
2023/09/10 04:02:09;;;;;;;;;;;27.60;62.60;;;;;;5075289;28;19944;-56
2023/09/10 04:04:34;;;;;;;;;;;27.60;62.60;;;;;;5075229;28;20307;-56
2023/09/10 04:07:00;;;;;;;;;;;27.60;62.70;;;;;;5075181;28;19935;-56
2023/09/10 04:09:25;;;;;;;;;;;27.60;62.80;;;;;;5075170;28;20423;-56
2023/09/10 04:11:51;;;;;;;;;;;27.50;62.90;;;;;;5073904;28;19935;-57
2023/09/10 04:14:16;;;;;;;;;;;27.50;62.90;;;;;;5075133;28;20331;-56
2023/09/10 04:16:42;;;;;;;;;;;27.50;62.90;;;;;;5075187;28;20289;-56
2023/09/10 04:19:07;;;;;;;;;;;27.50;63.00;;;;;;5075161;28;19915;-56
2023/09/10 04:21:33;;;;;;;;;;;27.40;63.00;;;;;;5074870;28;20002;-56
2023/09/10 04:23:58;;;;;;;;;;;27.40;62.90;;;;;;5073961;28;19923;-56
2023/09/10 04:26:24;;;;;;;;;;;27.50;63.00;;;;;;5074809;28;19995;-56
2023/09/10 04:28:51;;;;;;;;;;;27.40;63.10;;;;;;5074895;28;19909;-57
2023/09/10 04:31:19;;;;;;;;;;;27.40;63.10;;;;;;5073533;28;19934;-56
2023/09/10 04:33:44;;;;;;;;;;;27.40;63.10;;;;;;5073512;28;19909;-56
2023/09/10 04:36:10;;;;;;;;;;;27.40;63.20;;;;;;5074707;28;19908;-56
2023/09/10 04:38:35;;;;;;;;;;;27.40;63.10;;;;;;5074734;28;19909;-56
2023/09/10 04:41:01;;;;;;;;;;;27.40;63.10;;;;;;5074628;28;19909;-56
2023/09/10 04:43:26;;;;;;;;;;;27.40;63.10;;;;;;5074527;28;20410;-56
2023/09/10 04:45:52;;;;;;;;;;;27.40;63.00;;;;;;5074666;28;19909;-56
2023/09/10 04:48:17;;;;;;;;;;;27.50;63.20;;;;;;5074341;28;19982;-56
2023/09/10 04:50:43;;;;;;;;;;;27.40;63.10;;;;;;5074242;28;19935;-56
2023/09/10 04:53:09;;;;;;;;;;;27.40;63.10;;;;;;5074363;28;19912;-56
2023/09/10 04:55:34;;;;;;;;;;;27.40;63.10;;;;;;5073601;28;19915;-56
2023/09/10 04:58:00;;;;;;;;;;;27.40;63.10;;;;;;5074259;28;20223;-56
2023/09/10 05:00:25;;;;;;;;;;;27.40;63.10;;;;;;5074179;28;19909;-56
2023/09/10 05:02:51;;;;;;;;;;;27.40;63.20;;;;;;5074188;28;19909;-56
2023/09/10 05:05:16;;;;;;;;;;;27.40;63.10;;;;;;5074065;28;19912;-55
2023/09/10 05:07:42;;;;;;;;;;;27.40;63.10;;;;;;5074094;28;19908;-56
2023/09/10 05:10:09;;;;;;;;;;;27.40;63.00;;;;;;5073998;28;20045;-56
2023/09/10 05:12:34;;;;;;;;;;;27.40;63.20;;;;;;5074009;28;20391;-56
2023/09/10 05:15:00;;;;;;;;;;;27.30;63.00;;;;;;5073927;28;19908;-56
2023/09/10 05:17:25;;;;;;;;;;;27.30;63.10;;;;;;5073845;28;19909;-56
2023/09/10 05:19:50;;;;;;;;;;;27.30;63.10;;;;;;5073943;28;19952;-56
2023/09/10 05:22:16;;;;;;;;;;;27.40;63.20;;;;;;5073674;28;19959;-56
2023/09/10 05:24:41;;;;;;;;;;;27.40;63.20;;;;;;5072366;28;19951;-56
2023/09/10 05:27:07;;;;;;;;;;;27.30;63.20;;;;;;5074112;28;19913;-56
2023/09/10 05:29:32;;;;;;;;;;;27.30;63.20;;;;;;5073467;28;19908;-56
2023/09/10 05:31:58;;;;;;;;;;;27.30;63.00;;;;;;5073708;28;19944;-55
2023/09/10 05:34:23;;;;;;;;;;;27.40;63.10;;;;;;5073854;28;19916;-56
2023/09/10 05:36:49;;;;;;;;;;;27.30;63.00;;;;;;5073453;28;19909;-56
2023/09/10 05:39:15;;;;;;;;;;;27.30;63.10;;;;;;5073436;28;19940;-56
2023/09/10 05:41:40;;;;;;;;;;;27.30;63.10;;;;;;5073572;28;19909;-56
2023/09/10 05:44:05;;;;;;;;;;;27.30;63.10;;;;;;5073383;28;20365;-56
2023/09/10 05:46:31;;;;;;;;;;;27.30;63.20;;;;;;5073291;28;19920;-56
2023/09/10 05:48:56;;;;;;;;;;;27.20;63.20;;;;;;5073380;28;19908;-55
2023/09/10 05:51:22;;;;;;;;;;;27.20;63.20;;;;;;5073100;28;20054;-56
2023/09/10 05:53:47;;;;;;;;;;;27.20;63.20;;;;;;5073216;28;19915;-56
2023/09/10 05:56:13;;;;;;;;;;;27.20;63.30;;;;;;5073114;28;20002;-56
2023/09/10 05:58:38;;;;;;;;;;;27.20;63.20;;;;;;5073293;28;19916;-56
2023/09/10 06:01:04;;;;;;;;;;;27.20;63.20;;;;;;5073135;28;20309;-56
2023/09/10 06:03:29;;;;;;;;;;;27.20;63.30;;;;;;5072967;28;19956;-55
2023/09/10 06:05:56;;;;;;;;;;;27.20;63.30;;;;;;5073081;28;19913;-56
2023/09/10 06:08:22;;;;;;;;;;;27.20;63.20;;;;;;5073042;28;19909;-56
2023/09/10 06:10:47;;;;;;;;;;;27.20;63.30;;;;;;5073163;28;20010;-56
2023/09/10 06:13:12;;;;;;;;;;;27.20;63.30;;;;;;5073207;28;19909;-56
2023/09/10 06:15:38;;;;;;;;;;;27.20;63.40;;;;;;5072969;28;19919;-56
2023/09/10 06:18:03;;;;;;;;;;;27.20;63.30;;;;;;5072947;28;20017;-56
2023/09/10 06:20:29;;;;;;;;;;;27.20;63.30;;;;;;5071581;28;20015;-55
2023/09/10 06:22:56;;;;;;;;;;;27.20;63.30;;;;;;5072891;28;19909;-56
2023/09/10 06:25:23;;;;;;;;;;;27.10;63.20;;;;;;5072781;28;19912;-56
2023/09/10 06:27:48;;;;;;;;;;;27.10;63.30;;;;;;5072863;28;19912;-56
2023/09/10 06:30:13;;;;;;;;;;;27.10;63.40;;;;;;5072708;28;20312;-56
2023/09/10 06:32:39;;;;;;;;;;;27.10;63.20;;;;;;5072858;28;20263;-56
2023/09/10 06:35:05;;;;;;;;;;;27.10;63.30;;;;;;5071498;28;19915;-56
2023/09/10 06:37:30;;;;;;;;;;;27.10;63.30;;;;;;5072632;28;19959;-56
2023/09/10 06:39:55;;;;;;;;;;;27.10;63.30;;;;;;5071510;28;20369;-56
2023/09/10 06:42:21;;;;;;;;;;;27.10;63.20;;;;;;5072702;28;20307;-56
2023/09/10 06:44:46;;;;;;;;;;;27.00;63.20;;;;;;5072621;28;20276;-57
2023/09/10 06:47:12;;;;;;;;;;;27.00;63.20;;;;;;5072663;28;19909;-56
2023/09/10 06:49:37;;;;;;;;;;;27.10;63.30;;;;;;5072612;28;19948;-56
2023/09/10 06:52:04;;;;;;;;;;;27.10;63.30;;;;;;5072820;28;19964;-56
2023/09/10 06:54:29;;;;;;;;;;;27.00;63.30;;;;;;5071535;28;19909;-56
2023/09/10 06:56:55;;;;;;;;;;;27.10;63.20;;;;;;5072570;28;19961;-56
2023/09/10 06:59:20;;;;;;;;;;;27.10;63.10;;;;;;5072473;28;19931;-56
2023/09/10 07:01:46;;;;;;;;;;;27.10;63.00;;;;;;5072423;28;19908;-56
2023/09/10 07:04:15;;;;;;;;;;;27.10;63.00;;;;;;5072359;28;19912;-55
2023/09/10 07:06:41;;;;;;;;;;;27.10;63.00;;;;;;5072515;28;19999;-56
2023/09/10 07:09:06;;;;;;;;;;;27.10;63.00;;;;;;5072482;28;20400;-56
2023/09/10 07:11:32;;;;;;;;;;;27.10;63.00;;;;;;5072455;28;19913;-55
2023/09/10 07:13:57;;;;;;;;;;;27.10;62.90;;;;;;5072282;28;19946;-55
2023/09/10 07:16:23;;;;;;;;;;;27.10;62.90;;;;;;5072701;28;20000;-56
2023/09/10 07:18:48;;;;;;;;;;;27.10;62.90;;;;;;5075484;28;19913;-56
2023/09/10 07:21:14;;;;;;;;;;;27.10;62.90;;;;;;5076117;28;19913;-55
2023/09/10 07:23:39;;;;;;;;;;;27.10;63.00;;;;;;5076050;28;19958;-56
2023/09/10 07:26:04;;;;;;;;;;;27.00;62.80;;;;;;5076029;28;19915;-56
2023/09/10 07:28:30;;;;;;;;;;;27.00;62.80;;;;;;5075967;28;19916;-56
2023/09/10 07:30:55;;;;;;;;;;;27.00;62.80;;;;;;5074597;28;19958;-56
2023/09/10 07:33:21;;;;;;;;;;;27.10;62.90;;;;;;5075853;28;20007;-56
2023/09/10 07:35:46;;;;;;;;;;;27.00;62.70;;;;;;5075896;28;19909;-56
2023/09/10 07:38:12;;;;;;;;;;;27.10;62.80;;;;;;5075677;28;20076;-56
2023/09/10 07:40:37;;;;;;;;;;;27.10;62.80;;;;;;5075758;28;19915;-56
2023/09/10 07:43:03;;;;;;;;;;;27.10;62.80;;;;;;5075795;28;19909;-56
2023/09/10 07:45:28;;;;;;;;;;;27.00;62.70;;;;;;5075524;28;19916;-56
2023/09/10 07:47:54;;;;;;;;;;;27.00;62.70;;;;;;5075667;28;19915;-56
2023/09/10 07:50:19;;;;;;;;;;;27.00;62.70;;;;;;5075457;28;19991;-56
2023/09/10 07:52:45;;;;;;;;;;;27.10;62.80;;;;;;5075461;28;20020;-56
2023/09/10 07:55:10;;;;;;;;;;;27.10;62.90;;;;;;5075527;28;19916;-56
2023/09/10 07:57:36;;;;;;;;;;;27.10;63.00;;;;;;5075445;28;20408;-56
2023/09/10 08:00:01;;;;;;;;;;;27.00;62.80;;;;;;5075458;28;19912;-56
2023/09/10 08:02:28;;;;;;;;;;;27.10;62.90;;;;;;5075287;28;19940;-56
2023/09/10 08:04:54;;;;;;;;;;;27.00;62.80;;;;;;5075369;28;19919;-56
2023/09/10 08:07:19;;;;;;;;;;;27.00;62.80;;;;;;5075231;28;19995;-55
2023/09/10 08:09:45;;;;;;;;;;;27.00;62.80;;;;;;5075527;28;19963;-56
2023/09/10 08:12:10;;;;;;;;;;;27.00;62.70;;;;;;5075205;28;20326;-56
2023/09/10 08:14:37;;;;;;;;;;;27.00;62.70;;;;;;5075092;28;19908;-56
2023/09/10 08:17:03;;;;;;;;;;;27.00;62.80;;;;;;5075216;28;19908;-56
2023/09/10 08:19:28;;;;;;;;;;;27.00;62.90;;;;;;5075093;28;19912;-56
2023/09/10 08:21:54;;;;;;;;;;;27.00;62.90;;;;;;5075171;28;19974;-56
2023/09/10 08:24:21;;;;;;;;;;;27.00;63.00;;;;;;5074824;28;19999;-56
2023/09/10 08:26:46;;;;;;;;;;;27.00;63.00;;;;;;5055010;28;20369;-56
2023/09/10 08:29:12;;;;;;;;;;;27.00;62.90;;;;;;5053611;28;19909;-55
2023/09/10 08:31:37;;;;;;;;;;;27.00;62.90;;;;;;5054818;28;19952;-56
2023/09/10 08:34:03;;;;;;;;;;;27.00;62.90;;;;;;5054826;28;19909;-56
2023/09/10 08:36:28;;;;;;;;;;;27.00;62.90;;;;;;5054662;28;20003;-56
2023/09/10 08:38:54;;;;;;;;;;;27.00;62.80;;;;;;5054661;28;19916;-57
2023/09/10 08:41:26;;;;;;;;;;;27.00;62.80;;;;;;5054689;28;19932;-56
2023/09/10 08:43:58;;;;;;;;;;;27.00;62.80;;;;;;5054599;28;20427;-56
2023/09/10 08:46:35;;;;;;;;;;;27.00;62.80;;;;;;5054635;28;19916;-56
2023/09/10 08:49:01;;;;;;;;;;;27.00;62.80;;;;;;5054651;28;19909;-56
2023/09/10 08:51:26;;;;;;;;;;;27.00;62.80;;;;;;5054362;28;19920;-55
2023/09/10 08:53:53;;;;;;;;;;;26.90;62.90;;;;;;5054498;28;20410;-56
2023/09/10 08:56:19;;;;;;;;;;;27.00;62.80;;;;;;5071409;28;20284;-56
2023/09/10 08:58:45;;;;;;;;;;;26.90;62.80;;;;;;5073107;28;19908;-56
2023/09/10 09:01:11;;;;;;;;;;;26.90;62.90;;;;;;5074292;28;20498;-56
2023/09/10 09:03:36;;;;;;;;;;;26.90;62.90;;;;;;5074051;28;20015;-56
2023/09/10 09:06:02;;;;;;;;;;;26.90;62.90;;;;;;5074233;28;19940;-56
2023/09/10 09:08:31;;;;;;;;;;;26.90;62.80;;;;;;5074264;28;19909;-56
2023/09/10 09:10:58;;;;;;;;;;;26.90;62.80;;;;;;5074084;28;19915;-55
2023/09/10 09:13:23;;;;;;;;;;;26.90;63.70;;;;;;5072739;28;19970;-56
2023/09/10 09:15:50;;;;;;;;;;;26.80;63.00;;;;;;5073953;28;19913;-56
2023/09/10 09:18:15;;;;;;;;;;;26.90;63.00;;;;;;5073871;28;19943;-56
2023/09/10 09:20:44;;;;;;;;;;;26.80;63.00;;;;;;5072890;28;20419;-56
2023/09/10 09:23:10;;;;;;;;;;;26.80;62.90;;;;;;5073850;28;20368;-56
2023/09/10 09:25:36;;;;;;;;;;;26.80;62.90;;;;;;5073584;28;19942;-56
2023/09/10 09:28:02;;;;;;;;;;;26.90;62.80;;;;;;5073802;28;19995;-56
2023/09/10 09:30:28;;;;;;;;;;;26.90;62.70;;;;;;5073675;28;19965;-56
2023/09/10 09:32:53;;;;;;;;;;;26.90;62.60;;;;;;5073582;28;19908;-56
2023/09/10 09:35:19;;;;;;;;;;;26.90;62.40;;;;;;5073606;28;19912;-56
2023/09/10 09:37:44;;;;;;;;;;;27.00;62.50;;;;;;5073503;28;19908;-56
2023/09/10 09:40:10;;;;;;;;;;;26.90;62.40;;;;;;5073133;28;20372;-56
2023/09/10 09:42:36;;;;;;;;;;;26.90;62.20;;;;;;5073425;28;20342;-56
2023/09/10 09:45:02;;;;;;;;;;;27.00;62.10;;;;;;5072199;28;19982;-56
2023/09/10 09:47:27;;;;;;;;;;;27.00;62.00;;;;;;5073326;28;19909;-56
2023/09/10 09:49:55;;;;;;;;;;;27.00;62.10;;;;;;5073468;28;19908;-56
2023/09/10 09:52:20;;;;;;;;;;;27.00;61.90;;;;;;5071839;28;19924;-55
2023/09/10 09:54:47;;;;;;;;;;;27.10;62.00;;;;;;5072230;28;19954;-56
2023/09/10 09:57:12;;;;;;;;;;;27.10;61.80;;;;;;5072049;28;19908;-56
2023/09/10 09:59:38;;;;;;;;;;;27.10;61.50;;;;;;5073249;28;19927;-56
2023/09/10 10:02:03;;;;;;;;;;;27.10;61.70;;;;;;5071900;28;19959;-56
2023/09/10 10:04:32;;;;;;;;;;;27.10;61.50;;;;;;5071986;28;19917;-56
2023/09/10 10:06:58;;;;;;;;;;;27.20;61.80;;;;;;5071813;28;19931;-56
2023/09/10 10:09:23;;;;;;;;;;;27.20;61.60;;;;;;5072992;28;19908;-56
2023/09/10 10:11:49;;;;;;;;;;;27.20;61.70;;;;;;5073092;28;19958;-56
2023/09/10 10:14:14;;;;;;;;;;;27.20;61.60;;;;;;5072922;28;20052;-56
2023/09/10 10:16:40;;;;;;;;;;;27.10;61.40;;;;;;5073010;28;19999;-56
2023/09/10 10:19:05;;;;;;;;;;;27.20;61.40;;;;;;5073197;28;19912;-56
2023/09/10 10:21:31;;;;;;;;;;;27.20;61.20;;;;;;5072904;28;19955;-56
2023/09/10 10:23:56;;;;;;;;;;;27.20;61.50;;;;;;5072790;28;19990;-56
2023/09/10 10:26:22;;;;;;;;;;;27.20;61.50;;;;;;5072759;28;19912;-56
2023/09/10 10:28:49;;;;;;;;;;;27.20;61.40;;;;;;5072860;28;20065;-56
2023/09/10 10:31:18;;;;;;;;;;;27.30;61.30;;;;;;5072810;28;19931;-56
2023/09/10 10:33:51;;;;;;;;;;;27.30;61.10;;;;;;5071992;28;19915;-56
2023/09/10 10:36:26;;;;;;;;;;;27.40;60.90;;;;;;5072877;28;19923;-56
2023/09/10 10:38:52;;;;;;;;;;;27.40;60.80;;;;;;5071608;28;20311;-56
2023/09/10 10:41:17;;;;;;;;;;;27.40;60.90;;;;;;5071528;28;19922;-56
2023/09/10 10:43:46;;;;;;;;;;;27.50;60.70;;;;;;5072647;28;19916;-56
2023/09/10 10:46:12;;;;;;;;;;;27.50;60.70;;;;;;5072743;28;19908;-56
2023/09/10 10:48:39;;;;;;;;;;;27.50;60.80;;;;;;5071230;28;19938;-56
2023/09/10 10:51:05;;;;;;;;;;;27.50;60.90;;;;;;5071357;28;20299;-56
2023/09/10 10:53:31;;;;;;;;;;;27.40;60.60;;;;;;5075497;28;19954;-56
2023/09/10 10:55:57;;;;;;;;;;;27.50;60.60;;;;;;5076675;28;19908;-56
2023/09/10 10:58:23;;;;;;;;;;;27.50;60.30;;;;;;5076606;28;19908;-56
2023/09/10 11:00:52;;;;;;;;;;;27.60;60.40;;;;;;5075548;28;19916;-56
2023/09/10 11:03:18;;;;;;;;;;;27.60;60.80;;;;;;5076531;28;19909;-56
2023/09/10 11:05:52;;;;;;;;;;;27.70;60.50;;;;;;5076489;28;19931;-56
2023/09/10 11:08:24;;;;;;;;;;;27.60;60.50;;;;;;5076745;28;19908;-56
2023/09/10 11:10:49;;;;;;;;;;;27.60;60.40;;;;;;5076409;28;19919;-56
2023/09/10 11:13:15;;;;;;;;;;;27.70;60.30;;;;;;5076177;28;19908;-56
2023/09/10 11:16:00;;;;;;;;;;;27.70;60.10;;;;;;5075129;28;19948;-56
2023/09/10 11:18:34;;;;;;;;;;;27.70;60.90;;;;;;5076188;28;19908;-56
2023/09/10 11:20:59;;;;;;;;;;;27.70;60.00;;;;;;5076142;28;19912;-56
2023/09/10 11:23:25;;;;;;;;;;;27.70;60.10;;;;;;5075997;28;20015;-56
2023/09/10 11:25:51;;;;;;;;;;;27.70;60.10;;;;;;5076170;28;19944;-56
2023/09/10 11:28:35;;;;;;;;;;;27.70;60.30;;;;;;5075971;28;20360;-56
2023/09/10 11:31:02;;;;;;;;;;;27.70;60.20;;;;;;5076004;28;20011;-56
2023/09/10 11:33:29;;;;;;;;;;;27.80;60.00;;;;;;5076006;28;19912;-56
2023/09/10 11:35:54;;;;;;;;;;;27.80;60.00;;;;;;5075891;28;19909;-55
2023/09/10 11:38:20;;;;;;;;;;;27.70;60.10;;;;;;5075849;28;19908;-56
2023/09/10 11:40:45;;;;;;;;;;;27.80;60.00;;;;;;5075793;28;20360;-56
2023/09/10 11:43:11;;;;;;;;;;;27.80;60.00;;;;;;5075736;28;20280;-57
2023/09/10 11:45:36;;;;;;;;;;;27.80;59.90;;;;;;5075705;28;19913;-56
2023/09/10 11:48:02;;;;;;;;;;;27.80;59.70;;;;;;5075723;28;20004;-56
2023/09/10 11:50:28;;;;;;;;;;;27.80;59.70;;;;;;5075314;28;19916;-56
2023/09/10 11:52:53;;;;;;;;;;;27.90;59.30;;;;;;5074376;28;20003;-56
2023/09/10 11:55:19;;;;;;;;;;;27.90;59.20;;;;;;5075444;28;19919;-55
2023/09/10 11:57:44;;;;;;;;;;;28.00;59.50;;;;;;5074228;28;19954;-56
2023/09/10 12:00:11;;;;;;;;;;;28.00;59.60;;;;;;5075557;28;19958;-56
2023/09/10 12:02:36;;;;;;;;;;;27.90;59.70;;;;;;5075565;28;20385;-56
2023/09/10 12:05:05;;;;;;;;;;;27.90;59.60;;;;;;5075105;28;20001;-56
2023/09/10 12:07:31;;;;;;;;;;;27.90;59.50;;;;;;5075288;28;19909;-56
2023/09/10 12:09:56;;;;;;;;;;;28.00;59.40;;;;;;5075342;28;20422;-56
2023/09/10 12:12:24;;;;;;;;;;;28.00;59.40;;;;;;5075366;28;19962;-56
2023/09/10 12:14:49;;;;;;;;;;;28.00;59.50;;;;;;5075099;28;20015;-56
2023/09/10 12:17:15;;;;;;;;;;;28.00;59.30;;;;;;5073715;28;19952;-55
2023/09/10 12:19:40;;;;;;;;;;;28.00;59.20;;;;;;5075090;28;19908;-56
2023/09/10 12:22:10;;;;;;;;;;;28.10;58.50;;;;;;5073921;28;20360;-56
2023/09/10 12:24:39;;;;;;;;;;;28.10;58.60;;;;;;5073769;28;19916;-56
2023/09/10 12:27:04;;;;;;;;;;;28.10;58.50;;;;;;5074972;28;19909;-56
2023/09/10 12:29:30;;;;;;;;;;;28.10;58.90;;;;;;5074844;28;19909;-56
2023/09/10 12:31:56;;;;;;;;;;;28.10;58.80;;;;;;5074788;28;19923;-56
2023/09/10 12:34:22;;;;;;;;;;;28.10;58.90;;;;;;5074899;28;19912;-56
2023/09/10 12:36:48;;;;;;;;;;;28.20;58.70;;;;;;5074612;28;20257;-56
2023/09/10 12:39:20;;;;;;;;;;;28.20;58.90;;;;;;5074717;28;20385;-56
2023/09/10 12:41:49;;;;;;;;;;;28.20;59.10;;;;;;5074699;28;20050;-56
2023/09/10 12:44:14;;;;;;;;;;;28.10;59.10;;;;;;5073241;28;19912;-58
2023/09/10 12:46:40;;;;;;;;;;;28.10;59.00;;;;;;5074720;28;20315;-56
2023/09/10 12:49:05;;;;;;;;;;;28.20;59.00;;;;;;5074688;28;20003;-56
2023/09/10 12:51:31;;;;;;;;;;;28.20;58.80;;;;;;5074266;28;19921;-57
2023/09/10 12:53:56;;;;;;;;;;;28.20;58.80;;;;;;5073195;28;19916;-56
2023/09/10 12:56:22;;;;;;;;;;;28.20;58.80;;;;;;5074223;28;19915;-56
2023/09/10 12:58:47;;;;;;;;;;;28.30;58.90;;;;;;5074353;28;19958;-56
2023/09/10 13:01:14;;;;;;;;;;;28.30;59.00;;;;;;5074354;28;19956;-56
2023/09/10 13:03:39;;;;;;;;;;;28.20;59.00;;;;;;5072867;28;20003;-56
2023/09/10 13:06:05;;;;;;;;;;;28.30;59.10;;;;;;5074215;28;20015;-55
2023/09/10 13:08:30;;;;;;;;;;;28.30;59.20;;;;;;5074586;28;19909;-56
2023/09/10 13:10:56;;;;;;;;;;;28.30;59.10;;;;;;5074002;28;19909;-55
2023/09/10 13:13:21;;;;;;;;;;;28.30;59.10;;;;;;5073944;28;20002;-56
2023/09/10 13:15:47;;;;;;;;;;;28.40;59.10;;;;;;5073286;28;19912;-55
2023/09/10 13:18:12;;;;;;;;;;;28.30;59.10;;;;;;5073930;28;19909;-56
2023/09/10 13:20:37;;;;;;;;;;;28.30;59.20;;;;;;5073930;28;19915;-56
2023/09/10 13:23:03;;;;;;;;;;;28.30;59.10;;;;;;5073769;28;20383;-56
2023/09/10 13:25:29;;;;;;;;;;;28.40;59.20;;;;;;5073598;28;20437;-59
2023/09/10 13:27:54;;;;;;;;;;;28.30;59.30;;;;;;5073897;28;20418;-56
2023/09/10 13:30:20;;;;;;;;;;;28.30;59.20;;;;;;5073652;28;19915;-56
2023/09/10 13:32:45;;;;;;;;;;;28.40;59.10;;;;;;5073668;28;19916;-56
2023/09/10 13:35:11;;;;;;;;;;;28.40;58.90;;;;;;5073683;28;19933;-56
2023/09/10 13:37:38;;;;;;;;;;;28.40;58.90;;;;;;5073588;28;19909;-56
2023/09/10 13:40:04;;;;;;;;;;;28.50;58.80;;;;;;5073607;28;19908;-56
2023/09/10 13:42:30;;;;;;;;;;;28.50;58.90;;;;;;5073668;28;20414;-56
2023/09/10 13:44:56;;;;;;;;;;;28.50;58.70;;;;;;5073347;28;19913;-56
2023/09/10 13:47:21;;;;;;;;;;;28.50;58.50;;;;;;5073508;28;19908;-56
2023/09/10 13:49:46;;;;;;;;;;;28.50;58.80;;;;;;5073413;28;19909;-56
2023/09/10 13:52:12;;;;;;;;;;;28.50;58.80;;;;;;5073164;28;19964;-56
2023/09/10 13:54:37;;;;;;;;;;;28.50;59.00;;;;;;5073209;28;19909;-56
2023/09/10 13:57:03;;;;;;;;;;;28.50;59.00;;;;;;5073259;28;19908;-56
2023/09/10 13:59:28;;;;;;;;;;;28.50;59.10;;;;;;5073236;28;19974;-56
2023/09/10 14:01:54;;;;;;;;;;;28.50;59.00;;;;;;5073188;28;19916;-56
2023/09/10 14:04:20;;;;;;;;;;;28.60;58.80;;;;;;5071719;28;19991;-56
2023/09/10 14:06:45;;;;;;;;;;;28.50;59.10;;;;;;5073169;28;19915;-56
2023/09/10 14:09:10;;;;;;;;;;;28.50;59.10;;;;;;5073063;28;19908;-56
2023/09/10 14:11:36;;;;;;;;;;;28.50;59.00;;;;;;5072945;28;19908;-56
2023/09/10 14:14:02;;;;;;;;;;;28.50;59.10;;;;;;5072992;28;20288;-56
2023/09/10 14:16:27;;;;;;;;;;;28.60;58.70;;;;;;5073038;28;19909;-55